sensor_id;sensor_type;location;lat;lon;timestamp;P1;durP1;ratioP1;P2;durP2;ratioP2
12412;SDS011;13877;18.896;-99.222;2023-12-14T00:00:55;26.80;;;10.13;;
12412;SDS011;13877;18.896;-99.222;2023-12-14T00:03:23;31.92;;;10.02;;
12412;SDS011;13877;18.896;-99.222;2023-12-14T00:05:50;47.60;;;14.65;;
12412;SDS011;13877;18.896;-99.222;2023-12-14T00:08:17;42.13;;;15.52;;
12412;SDS011;13877;18.896;-99.222;2023-12-14T00:10:44;37.05;;;15.35;;
12412;SDS011;13877;18.896;-99.222;2023-12-14T00:13:12;32.58;;;14.32;;
12412;SDS011;13877;18.896;-99.222;2023-12-14T00:15:39;39.95;;;12.90;;
12412;SDS011;13877;18.896;-99.222;2023-12-14T00:18:07;32.00;;;12.23;;
12412;SDS011;13877;18.896;-99.222;2023-12-14T00:20:34;36.40;;;10.98;;
12412;SDS011;13877;18.896;-99.222;2023-12-14T00:23:01;31.23;;;10.02;;
12412;SDS011;13877;18.896;-99.222;2023-12-14T00:25:28;23.48;;;8.75;;
12412;SDS011;13877;18.896;-99.222;2023-12-14T00:27:57;25.25;;;9.40;;
12412;SDS011;13877;18.896;-99.222;2023-12-14T00:30:25;31.02;;;9.68;;
12412;SDS011;13877;18.896;-99.222;2023-12-14T00:32:52;27.30;;;9.10;;
12412;SDS011;13877;18.896;-99.222;2023-12-14T00:35:19;25.98;;;8.40;;
12412;SDS011;13877;18.896;-99.222;2023-12-14T00:37:46;31.85;;;9.05;;
12412;SDS011;13877;18.896;-99.222;2023-12-14T00:40:13;42.28;;;9.65;;
12412;SDS011;13877;18.896;-99.222;2023-12-14T00:42:41;26.50;;;8.80;;
12412;SDS011;13877;18.896;-99.222;2023-12-14T00:45:08;32.22;;;9.77;;
12412;SDS011;13877;18.896;-99.222;2023-12-14T00:47:36;23.50;;;9.18;;
12412;SDS011;13877;18.896;-99.222;2023-12-14T00:50:03;33.97;;;11.30;;
12412;SDS011;13877;18.896;-99.222;2023-12-14T00:52:31;28.08;;;9.35;;
12412;SDS011;13877;18.896;-99.222;2023-12-14T00:54:58;24.40;;;9.88;;
12412;SDS011;13877;18.896;-99.222;2023-12-14T00:57:25;32.97;;;10.30;;
12412;SDS011;13877;18.896;-99.222;2023-12-14T00:59:52;27.17;;;10.63;;
12412;SDS011;13877;18.896;-99.222;2023-12-14T01:02:21;28.42;;;10.38;;
12412;SDS011;13877;18.896;-99.222;2023-12-14T01:04:48;24.58;;;11.07;;
12412;SDS011;13877;18.896;-99.222;2023-12-14T01:07:16;33.60;;;10.35;;
12412;SDS011;13877;18.896;-99.222;2023-12-14T01:09:43;28.70;;;10.32;;
12412;SDS011;13877;18.896;-99.222;2023-12-14T01:12:10;26.05;;;10.52;;
12412;SDS011;13877;18.896;-99.222;2023-12-14T01:14:37;25.02;;;9.85;;
12412;SDS011;13877;18.896;-99.222;2023-12-14T01:17:05;38.08;;;11.85;;
12412;SDS011;13877;18.896;-99.222;2023-12-14T01:19:32;31.15;;;10.73;;
12412;SDS011;13877;18.896;-99.222;2023-12-14T01:21:59;35.38;;;11.35;;
12412;SDS011;13877;18.896;-99.222;2023-12-14T01:24:26;36.40;;;11.68;;
12412;SDS011;13877;18.896;-99.222;2023-12-14T01:26:54;38.28;;;12.25;;
12412;SDS011;13877;18.896;-99.222;2023-12-14T01:29:21;39.08;;;10.95;;
12412;SDS011;13877;18.896;-99.222;2023-12-14T01:31:48;39.72;;;10.80;;
12412;SDS011;13877;18.896;-99.222;2023-12-14T01:34:16;34.38;;;10.48;;
12412;SDS011;13877;18.896;-99.222;2023-12-14T01:36:44;24.20;;;9.95;;
12412;SDS011;13877;18.896;-99.222;2023-12-14T01:39:11;27.33;;;10.73;;
12412;SDS011;13877;18.896;-99.222;2023-12-14T01:41:38;32.65;;;9.88;;
12412;SDS011;13877;18.896;-99.222;2023-12-14T01:44:06;23.77;;;9.63;;
12412;SDS011;13877;18.896;-99.222;2023-12-14T01:46:33;29.13;;;9.98;;
12412;SDS011;13877;18.896;-99.222;2023-12-14T01:49:03;30.02;;;8.75;;
12412;SDS011;13877;18.896;-99.222;2023-12-14T01:51:30;27.60;;;8.45;;
12412;SDS011;13877;18.896;-99.222;2023-12-14T01:53:59;26.45;;;8.45;;
12412;SDS011;13877;18.896;-99.222;2023-12-14T01:56:27;23.92;;;8.45;;
12412;SDS011;13877;18.896;-99.222;2023-12-14T01:58:54;23.25;;;9.20;;
12412;SDS011;13877;18.896;-99.222;2023-12-14T02:01:25;21.45;;;9.00;;
12412;SDS011;13877;18.896;-99.222;2023-12-14T02:04:18;28.92;;;11.93;;
12412;SDS011;13877;18.896;-99.222;2023-12-14T02:06:45;33.35;;;11.82;;
12412;SDS011;13877;18.896;-99.222;2023-12-14T02:09:13;48.00;;;13.45;;
12412;SDS011;13877;18.896;-99.222;2023-12-14T02:11:40;64.32;;;17.98;;
12412;SDS011;13877;18.896;-99.222;2023-12-14T02:14:12;53.30;;;18.30;;
12412;SDS011;13877;18.896;-99.222;2023-12-14T02:16:39;61.72;;;20.98;;
12412;SDS011;13877;18.896;-99.222;2023-12-14T02:19:07;73.80;;;23.77;;
12412;SDS011;13877;18.896;-99.222;2023-12-14T02:21:34;56.78;;;18.17;;
12412;SDS011;13877;18.896;-99.222;2023-12-14T02:24:01;63.92;;;20.55;;
12412;SDS011;13877;18.896;-99.222;2023-12-14T02:26:29;55.65;;;18.98;;
12412;SDS011;13877;18.896;-99.222;2023-12-14T02:28:56;57.63;;;17.52;;
12412;SDS011;13877;18.896;-99.222;2023-12-14T02:31:24;62.45;;;17.95;;
12412;SDS011;13877;18.896;-99.222;2023-12-14T02:33:51;60.33;;;16.92;;
12412;SDS011;13877;18.896;-99.222;2023-12-14T02:36:18;39.20;;;15.52;;
12412;SDS011;13877;18.896;-99.222;2023-12-14T02:38:46;48.08;;;16.45;;
12412;SDS011;13877;18.896;-99.222;2023-12-14T02:41:13;40.55;;;15.45;;
12412;SDS011;13877;18.896;-99.222;2023-12-14T02:43:41;41.40;;;13.45;;
12412;SDS011;13877;18.896;-99.222;2023-12-14T02:46:08;42.60;;;14.65;;
12412;SDS011;13877;18.896;-99.222;2023-12-14T02:48:37;42.33;;;12.98;;
12412;SDS011;13877;18.896;-99.222;2023-12-14T02:51:13;42.28;;;13.63;;
12412;SDS011;13877;18.896;-99.222;2023-12-14T02:56:08;35.67;;;11.70;;
12412;SDS011;13877;18.896;-99.222;2023-12-14T02:58:40;48.72;;;12.45;;
12412;SDS011;13877;18.896;-99.222;2023-12-14T03:01:08;33.25;;;11.70;;
12412;SDS011;13877;18.896;-99.222;2023-12-14T03:03:37;29.70;;;11.13;;
12412;SDS011;13877;18.896;-99.222;2023-12-14T03:06:05;29.37;;;9.67;;
12412;SDS011;13877;18.896;-99.222;2023-12-14T03:08:34;26.42;;;9.48;;
12412;SDS011;13877;18.896;-99.222;2023-12-14T03:11:01;25.05;;;9.48;;
12412;SDS011;13877;18.896;-99.222;2023-12-14T03:13:28;24.15;;;10.60;;
12412;SDS011;13877;18.896;-99.222;2023-12-14T03:15:56;25.38;;;10.40;;
12412;SDS011;13877;18.896;-99.222;2023-12-14T03:18:23;28.27;;;9.40;;
12412;SDS011;13877;18.896;-99.222;2023-12-14T03:20:51;32.67;;;9.63;;
12412;SDS011;13877;18.896;-99.222;2023-12-14T03:23:18;20.40;;;8.95;;
12412;SDS011;13877;18.896;-99.222;2023-12-14T03:25:45;16.42;;;8.02;;
12412;SDS011;13877;18.896;-99.222;2023-12-14T03:28:12;18.60;;;7.47;;
12412;SDS011;13877;18.896;-99.222;2023-12-14T03:30:39;20.13;;;7.15;;
12412;SDS011;13877;18.896;-99.222;2023-12-14T03:33:07;21.25;;;7.80;;
12412;SDS011;13877;18.896;-99.222;2023-12-14T03:35:34;29.95;;;7.43;;
12412;SDS011;13877;18.896;-99.222;2023-12-14T03:38:02;24.15;;;7.43;;
12412;SDS011;13877;18.896;-99.222;2023-12-14T03:40:29;24.30;;;8.05;;
12412;SDS011;13877;18.896;-99.222;2023-12-14T03:42:56;24.83;;;7.70;;
12412;SDS011;13877;18.896;-99.222;2023-12-14T03:45:24;18.95;;;7.95;;
12412;SDS011;13877;18.896;-99.222;2023-12-14T03:47:51;19.73;;;7.72;;
12412;SDS011;13877;18.896;-99.222;2023-12-14T03:50:19;22.73;;;7.55;;
12412;SDS011;13877;18.896;-99.222;2023-12-14T03:52:46;20.55;;;7.15;;
12412;SDS011;13877;18.896;-99.222;2023-12-14T03:55:14;18.67;;;7.55;;
12412;SDS011;13877;18.896;-99.222;2023-12-14T03:57:41;23.38;;;6.97;;
12412;SDS011;13877;18.896;-99.222;2023-12-14T04:00:12;15.23;;;6.95;;
12412;SDS011;13877;18.896;-99.222;2023-12-14T04:02:40;20.42;;;7.05;;
12412;SDS011;13877;18.896;-99.222;2023-12-14T04:05:07;37.63;;;7.22;;
12412;SDS011;13877;18.896;-99.222;2023-12-14T04:07:39;26.27;;;7.75;;
12412;SDS011;13877;18.896;-99.222;2023-12-14T04:10:10;20.52;;;8.50;;
12412;SDS011;13877;18.896;-99.222;2023-12-14T04:12:38;16.25;;;7.28;;
12412;SDS011;13877;18.896;-99.222;2023-12-14T04:15:07;23.58;;;6.88;;
12412;SDS011;13877;18.896;-99.222;2023-12-14T04:17:36;19.67;;;6.68;;
12412;SDS011;13877;18.896;-99.222;2023-12-14T04:20:05;20.63;;;6.75;;
12412;SDS011;13877;18.896;-99.222;2023-12-14T04:22:33;21.05;;;7.38;;
12412;SDS011;13877;18.896;-99.222;2023-12-14T04:25:00;18.83;;;7.38;;
12412;SDS011;13877;18.896;-99.222;2023-12-14T04:27:28;16.63;;;5.97;;
12412;SDS011;13877;18.896;-99.222;2023-12-14T04:29:55;22.17;;;7.50;;
12412;SDS011;13877;18.896;-99.222;2023-12-14T04:32:23;15.98;;;6.82;;
12412;SDS011;13877;18.896;-99.222;2023-12-14T04:34:50;17.80;;;6.13;;
12412;SDS011;13877;18.896;-99.222;2023-12-14T04:37:18;16.50;;;5.88;;
12412;SDS011;13877;18.896;-99.222;2023-12-14T04:39:45;14.38;;;5.30;;
12412;SDS011;13877;18.896;-99.222;2023-12-14T04:42:12;9.90;;;5.05;;
12412;SDS011;13877;18.896;-99.222;2023-12-14T04:44:39;17.58;;;5.72;;
12412;SDS011;13877;18.896;-99.222;2023-12-14T04:47:07;15.00;;;5.05;;
12412;SDS011;13877;18.896;-99.222;2023-12-14T04:49:34;15.95;;;5.55;;
12412;SDS011;13877;18.896;-99.222;2023-12-14T04:52:03;11.90;;;5.13;;
12412;SDS011;13877;18.896;-99.222;2023-12-14T04:54:31;14.82;;;4.43;;
12412;SDS011;13877;18.896;-99.222;2023-12-14T04:56:59;17.45;;;5.22;;
12412;SDS011;13877;18.896;-99.222;2023-12-14T04:59:26;11.32;;;4.65;;
12412;SDS011;13877;18.896;-99.222;2023-12-14T05:01:54;15.18;;;4.60;;
12412;SDS011;13877;18.896;-99.222;2023-12-14T05:04:22;8.15;;;3.95;;
12412;SDS011;13877;18.896;-99.222;2023-12-14T05:06:49;15.75;;;4.57;;
12412;SDS011;13877;18.896;-99.222;2023-12-14T05:09:16;14.23;;;3.90;;
12412;SDS011;13877;18.896;-99.222;2023-12-14T05:11:44;9.40;;;4.28;;
12412;SDS011;13877;18.896;-99.222;2023-12-14T05:14:11;15.82;;;4.15;;
12412;SDS011;13877;18.896;-99.222;2023-12-14T05:16:39;7.35;;;3.70;;
12412;SDS011;13877;18.896;-99.222;2023-12-14T05:19:06;7.35;;;3.60;;
12412;SDS011;13877;18.896;-99.222;2023-12-14T05:21:33;9.82;;;3.10;;
12412;SDS011;13877;18.896;-99.222;2023-12-14T05:24:01;15.48;;;3.92;;
12412;SDS011;13877;18.896;-99.222;2023-12-14T05:26:29;15.63;;;3.70;;
12412;SDS011;13877;18.896;-99.222;2023-12-14T05:28:56;14.90;;;3.92;;
12412;SDS011;13877;18.896;-99.222;2023-12-14T05:31:23;13.52;;;4.05;;
12412;SDS011;13877;18.896;-99.222;2023-12-14T05:33:51;11.07;;;4.07;;
12412;SDS011;13877;18.896;-99.222;2023-12-14T05:36:18;5.60;;;3.20;;
12412;SDS011;13877;18.896;-99.222;2023-12-14T05:38:45;8.18;;;3.03;;
12412;SDS011;13877;18.896;-99.222;2023-12-14T05:41:13;7.57;;;3.83;;
12412;SDS011;13877;18.896;-99.222;2023-12-14T05:43:41;8.32;;;3.42;;
12412;SDS011;13877;18.896;-99.222;2023-12-14T05:46:09;13.55;;;3.78;;
12412;SDS011;13877;18.896;-99.222;2023-12-14T05:48:46;9.45;;;3.28;;
12412;SDS011;13877;18.896;-99.222;2023-12-14T05:51:25;15.55;;;3.55;;
12412;SDS011;13877;18.896;-99.222;2023-12-14T05:54:03;12.82;;;3.25;;
12412;SDS011;13877;18.896;-99.222;2023-12-14T05:56:31;7.18;;;3.25;;
12412;SDS011;13877;18.896;-99.222;2023-12-14T05:59:00;6.10;;;3.10;;
12412;SDS011;13877;18.896;-99.222;2023-12-14T06:01:27;9.50;;;3.10;;
12412;SDS011;13877;18.896;-99.222;2023-12-14T06:03:54;7.18;;;3.05;;
12412;SDS011;13877;18.896;-99.222;2023-12-14T06:06:21;6.45;;;3.00;;
12412;SDS011;13877;18.896;-99.222;2023-12-14T06:08:50;3.80;;;2.70;;
12412;SDS011;13877;18.896;-99.222;2023-12-14T06:11:17;8.32;;;2.75;;
12412;SDS011;13877;18.896;-99.222;2023-12-14T06:13:46;5.65;;;2.58;;
12412;SDS011;13877;18.896;-99.222;2023-12-14T06:16:13;11.15;;;2.83;;
12412;SDS011;13877;18.896;-99.222;2023-12-14T06:18:40;11.13;;;3.15;;
12412;SDS011;13877;18.896;-99.222;2023-12-14T06:21:10;11.18;;;3.25;;
12412;SDS011;13877;18.896;-99.222;2023-12-14T06:23:39;9.43;;;2.75;;
12412;SDS011;13877;18.896;-99.222;2023-12-14T06:26:06;7.25;;;3.40;;
12412;SDS011;13877;18.896;-99.222;2023-12-14T06:28:34;8.88;;;3.08;;
12412;SDS011;13877;18.896;-99.222;2023-12-14T06:31:01;8.40;;;3.13;;
12412;SDS011;13877;18.896;-99.222;2023-12-14T06:33:30;9.10;;;2.67;;
12412;SDS011;13877;18.896;-99.222;2023-12-14T06:35:58;8.70;;;3.30;;
12412;SDS011;13877;18.896;-99.222;2023-12-14T06:38:29;12.80;;;2.78;;
12412;SDS011;13877;18.896;-99.222;2023-12-14T06:40:57;7.30;;;2.70;;
12412;SDS011;13877;18.896;-99.222;2023-12-14T06:43:24;7.18;;;3.45;;
12412;SDS011;13877;18.896;-99.222;2023-12-14T06:45:51;8.55;;;3.33;;
12412;SDS011;13877;18.896;-99.222;2023-12-14T06:48:19;11.13;;;3.10;;
12412;SDS011;13877;18.896;-99.222;2023-12-14T06:50:47;9.10;;;2.92;;
12412;SDS011;13877;18.896;-99.222;2023-12-14T06:53:14;8.32;;;2.70;;
12412;SDS011;13877;18.896;-99.222;2023-12-14T06:55:42;6.95;;;2.85;;
12412;SDS011;13877;18.896;-99.222;2023-12-14T06:58:09;6.32;;;3.00;;
12412;SDS011;13877;18.896;-99.222;2023-12-14T07:00:37;9.43;;;2.67;;
12412;SDS011;13877;18.896;-99.222;2023-12-14T07:03:05;7.63;;;2.58;;
12412;SDS011;13877;18.896;-99.222;2023-12-14T07:05:32;7.90;;;2.50;;
12412;SDS011;13877;18.896;-99.222;2023-12-14T07:07:59;7.05;;;2.72;;
12412;SDS011;13877;18.896;-99.222;2023-12-14T07:10:26;4.57;;;2.40;;
12412;SDS011;13877;18.896;-99.222;2023-12-14T07:12:54;7.45;;;2.88;;
12412;SDS011;13877;18.896;-99.222;2023-12-14T07:15:21;8.15;;;2.97;;
12412;SDS011;13877;18.896;-99.222;2023-12-14T07:17:49;7.28;;;2.90;;
12412;SDS011;13877;18.896;-99.222;2023-12-14T07:20:16;11.10;;;2.67;;
12412;SDS011;13877;18.896;-99.222;2023-12-14T07:22:44;6.18;;;2.78;;
12412;SDS011;13877;18.896;-99.222;2023-12-14T07:25:11;7.63;;;2.65;;
12412;SDS011;13877;18.896;-99.222;2023-12-14T07:27:38;7.35;;;2.72;;
12412;SDS011;13877;18.896;-99.222;2023-12-14T07:30:06;3.42;;;2.22;;
12412;SDS011;13877;18.896;-99.222;2023-12-14T07:32:35;7.53;;;2.70;;
12412;SDS011;13877;18.896;-99.222;2023-12-14T07:35:02;10.27;;;2.50;;
12412;SDS011;13877;18.896;-99.222;2023-12-14T07:37:30;6.18;;;2.28;;
12412;SDS011;13877;18.896;-99.222;2023-12-14T07:39:57;3.25;;;2.03;;
12412;SDS011;13877;18.896;-99.222;2023-12-14T07:42:25;7.45;;;2.33;;
12412;SDS011;13877;18.896;-99.222;2023-12-14T07:44:52;8.73;;;2.45;;
12412;SDS011;13877;18.896;-99.222;2023-12-14T07:47:20;4.10;;;2.38;;
12412;SDS011;13877;18.896;-99.222;2023-12-14T07:49:47;5.47;;;2.80;;
12412;SDS011;13877;18.896;-99.222;2023-12-14T07:52:15;6.43;;;2.40;;
12412;SDS011;13877;18.896;-99.222;2023-12-14T07:54:42;5.40;;;2.45;;
12412;SDS011;13877;18.896;-99.222;2023-12-14T07:57:09;8.60;;;2.15;;
12412;SDS011;13877;18.896;-99.222;2023-12-14T07:59:36;4.70;;;2.58;;
12412;SDS011;13877;18.896;-99.222;2023-12-14T08:02:04;5.45;;;2.30;;
12412;SDS011;13877;18.896;-99.222;2023-12-14T08:04:31;3.25;;;2.10;;
12412;SDS011;13877;18.896;-99.222;2023-12-14T08:06:59;7.63;;;2.40;;
12412;SDS011;13877;18.896;-99.222;2023-12-14T08:09:26;4.93;;;2.40;;
12412;SDS011;13877;18.896;-99.222;2023-12-14T08:11:54;9.05;;;2.30;;
12412;SDS011;13877;18.896;-99.222;2023-12-14T08:14:21;5.85;;;2.13;;
12412;SDS011;13877;18.896;-99.222;2023-12-14T08:16:48;6.43;;;2.20;;
12412;SDS011;13877;18.896;-99.222;2023-12-14T08:19:15;5.38;;;2.00;;
12412;SDS011;13877;18.896;-99.222;2023-12-14T08:21:43;3.20;;;2.10;;
12412;SDS011;13877;18.896;-99.222;2023-12-14T08:24:10;9.40;;;2.47;;
12412;SDS011;13877;18.896;-99.222;2023-12-14T08:26:39;4.90;;;1.90;;
12412;SDS011;13877;18.896;-99.222;2023-12-14T08:29:06;6.82;;;2.60;;
12412;SDS011;13877;18.896;-99.222;2023-12-14T08:31:34;7.38;;;2.30;;
12412;SDS011;13877;18.896;-99.222;2023-12-14T08:34:01;4.70;;;2.40;;
12412;SDS011;13877;18.896;-99.222;2023-12-14T08:36:29;5.65;;;2.67;;
12412;SDS011;13877;18.896;-99.222;2023-12-14T08:38:57;3.42;;;1.98;;
12412;SDS011;13877;18.896;-99.222;2023-12-14T08:41:25;5.03;;;1.80;;
12412;SDS011;13877;18.896;-99.222;2023-12-14T08:43:52;5.05;;;2.00;;
12412;SDS011;13877;18.896;-99.222;2023-12-14T08:46:21;3.60;;;2.20;;
12412;SDS011;13877;18.896;-99.222;2023-12-14T08:48:48;8.63;;;1.98;;
12412;SDS011;13877;18.896;-99.222;2023-12-14T08:51:16;4.35;;;2.53;;
12412;SDS011;13877;18.896;-99.222;2023-12-14T08:53:44;5.38;;;2.10;;
12412;SDS011;13877;18.896;-99.222;2023-12-14T08:56:12;5.90;;;2.40;;
12412;SDS011;13877;18.896;-99.222;2023-12-14T08:58:39;3.70;;;1.95;;
12412;SDS011;13877;18.896;-99.222;2023-12-14T09:01:06;7.72;;;3.13;;
12412;SDS011;13877;18.896;-99.222;2023-12-14T09:03:33;6.32;;;1.80;;
12412;SDS011;13877;18.896;-99.222;2023-12-14T09:06:01;6.15;;;1.88;;
12412;SDS011;13877;18.896;-99.222;2023-12-14T09:08:31;6.80;;;2.20;;
12412;SDS011;13877;18.896;-99.222;2023-12-14T09:10:58;10.77;;;2.05;;
12412;SDS011;13877;18.896;-99.222;2023-12-14T09:13:25;4.65;;;2.10;;
12412;SDS011;13877;18.896;-99.222;2023-12-14T09:15:52;4.78;;;2.15;;
12412;SDS011;13877;18.896;-99.222;2023-12-14T09:18:20;6.78;;;2.00;;
12412;SDS011;13877;18.896;-99.222;2023-12-14T09:20:48;6.07;;;2.08;;
12412;SDS011;13877;18.896;-99.222;2023-12-14T09:23:16;3.92;;;2.10;;
12412;SDS011;13877;18.896;-99.222;2023-12-14T09:25:45;3.35;;;1.83;;
12412;SDS011;13877;18.896;-99.222;2023-12-14T09:28:12;4.45;;;2.13;;
12412;SDS011;13877;18.896;-99.222;2023-12-14T09:30:39;4.88;;;2.30;;
12412;SDS011;13877;18.896;-99.222;2023-12-14T09:33:09;6.63;;;2.38;;
12412;SDS011;13877;18.896;-99.222;2023-12-14T09:35:36;7.05;;;2.30;;
12412;SDS011;13877;18.896;-99.222;2023-12-14T09:38:05;7.30;;;1.80;;
12412;SDS011;13877;18.896;-99.222;2023-12-14T09:40:33;3.80;;;2.25;;
12412;SDS011;13877;18.896;-99.222;2023-12-14T09:43:01;4.95;;;2.00;;
12412;SDS011;13877;18.896;-99.222;2023-12-14T09:45:29;5.93;;;2.78;;
12412;SDS011;13877;18.896;-99.222;2023-12-14T09:47:57;5.75;;;2.20;;
12412;SDS011;13877;18.896;-99.222;2023-12-14T09:50:25;14.57;;;2.42;;
12412;SDS011;13877;18.896;-99.222;2023-12-14T09:52:53;5.28;;;2.30;;
12412;SDS011;13877;18.896;-99.222;2023-12-14T09:55:20;5.93;;;2.13;;
12412;SDS011;13877;18.896;-99.222;2023-12-14T09:57:47;7.78;;;2.13;;
12412;SDS011;13877;18.896;-99.222;2023-12-14T10:00:30;4.53;;;2.28;;
12412;SDS011;13877;18.896;-99.222;2023-12-14T10:03:20;9.90;;;3.45;;
12412;SDS011;13877;18.896;-99.222;2023-12-14T10:05:48;5.15;;;2.33;;
12412;SDS011;13877;18.896;-99.222;2023-12-14T10:08:16;12.98;;;2.40;;
12412;SDS011;13877;18.896;-99.222;2023-12-14T10:10:44;10.07;;;2.30;;
12412;SDS011;13877;18.896;-99.222;2023-12-14T10:15:42;6.72;;;2.67;;
12412;SDS011;13877;18.896;-99.222;2023-12-14T10:18:11;8.20;;;2.60;;
12412;SDS011;13877;18.896;-99.222;2023-12-14T10:20:49;4.22;;;1.95;;
12412;SDS011;13877;18.896;-99.222;2023-12-14T10:23:17;4.60;;;2.17;;
12412;SDS011;13877;18.896;-99.222;2023-12-14T10:25:45;6.70;;;2.20;;
12412;SDS011;13877;18.896;-99.222;2023-12-14T10:28:13;5.97;;;2.30;;
12412;SDS011;13877;18.896;-99.222;2023-12-14T10:30:41;3.85;;;2.00;;
12412;SDS011;13877;18.896;-99.222;2023-12-14T10:33:08;7.13;;;2.25;;
12412;SDS011;13877;18.896;-99.222;2023-12-14T10:35:36;12.27;;;4.28;;
12412;SDS011;13877;18.896;-99.222;2023-12-14T10:38:04;6.22;;;2.10;;
12412;SDS011;13877;18.896;-99.222;2023-12-14T10:40:32;9.10;;;2.00;;
12412;SDS011;13877;18.896;-99.222;2023-12-14T10:43:00;6.32;;;2.25;;
12412;SDS011;13877;18.896;-99.222;2023-12-14T10:45:31;5.15;;;2.30;;
12412;SDS011;13877;18.896;-99.222;2023-12-14T10:47:59;4.28;;;2.30;;
12412;SDS011;13877;18.896;-99.222;2023-12-14T10:50:28;8.45;;;1.73;;
12412;SDS011;13877;18.896;-99.222;2023-12-14T10:52:59;3.67;;;2.15;;
12412;SDS011;13877;18.896;-99.222;2023-12-14T10:55:31;5.35;;;2.47;;
12412;SDS011;13877;18.896;-99.222;2023-12-14T10:58:19;9.93;;;1.98;;
12412;SDS011;13877;18.896;-99.222;2023-12-14T11:00:59;5.80;;;2.38;;
12412;SDS011;13877;18.896;-99.222;2023-12-14T11:03:33;4.05;;;2.28;;
12412;SDS011;13877;18.896;-99.222;2023-12-14T11:06:02;9.15;;;2.30;;
12412;SDS011;13877;18.896;-99.222;2023-12-14T11:08:30;6.68;;;2.05;;
12412;SDS011;13877;18.896;-99.222;2023-12-14T11:11:03;9.60;;;2.65;;
12412;SDS011;13877;18.896;-99.222;2023-12-14T11:13:37;13.90;;;2.72;;
12412;SDS011;13877;18.896;-99.222;2023-12-14T11:16:07;8.13;;;2.38;;
12412;SDS011;13877;18.896;-99.222;2023-12-14T11:18:34;5.38;;;2.47;;
12412;SDS011;13877;18.896;-99.222;2023-12-14T11:21:02;5.05;;;2.58;;
12412;SDS011;13877;18.896;-99.222;2023-12-14T11:23:30;8.57;;;2.63;;
12412;SDS011;13877;18.896;-99.222;2023-12-14T11:26:00;6.22;;;2.38;;
12412;SDS011;13877;18.896;-99.222;2023-12-14T11:28:36;4.00;;;2.35;;
12412;SDS011;13877;18.896;-99.222;2023-12-14T11:31:11;5.07;;;2.17;;
12412;SDS011;13877;18.896;-99.222;2023-12-14T11:33:39;12.40;;;2.38;;
12412;SDS011;13877;18.896;-99.222;2023-12-14T11:36:07;5.63;;;2.47;;
12412;SDS011;13877;18.896;-99.222;2023-12-14T11:38:35;5.55;;;2.20;;
12412;SDS011;13877;18.896;-99.222;2023-12-14T11:41:02;12.48;;;2.47;;
12412;SDS011;13877;18.896;-99.222;2023-12-14T11:43:38;16.00;;;3.30;;
12412;SDS011;13877;18.896;-99.222;2023-12-14T11:46:09;4.72;;;1.80;;
12412;SDS011;13877;18.896;-99.222;2023-12-14T11:48:37;6.95;;;2.28;;
12412;SDS011;13877;18.896;-99.222;2023-12-14T11:51:05;3.78;;;2.17;;
12412;SDS011;13877;18.896;-99.222;2023-12-14T11:53:32;6.63;;;2.40;;
12412;SDS011;13877;18.896;-99.222;2023-12-14T11:56:04;3.45;;;2.08;;
12412;SDS011;13877;18.896;-99.222;2023-12-14T11:58:32;7.88;;;2.30;;
12412;SDS011;13877;18.896;-99.222;2023-12-14T12:01:15;10.57;;;2.73;;
12412;SDS011;13877;18.896;-99.222;2023-12-14T12:03:44;3.35;;;2.25;;
12412;SDS011;13877;18.896;-99.222;2023-12-14T12:06:25;5.38;;;2.30;;
12412;SDS011;13877;18.896;-99.222;2023-12-14T12:08:56;3.95;;;2.47;;
12412;SDS011;13877;18.896;-99.222;2023-12-14T12:11:24;10.00;;;2.30;;
12412;SDS011;13877;18.896;-99.222;2023-12-14T12:13:54;4.90;;;2.42;;
12412;SDS011;13877;18.896;-99.222;2023-12-14T12:16:22;10.90;;;2.72;;
12412;SDS011;13877;18.896;-99.222;2023-12-14T12:18:50;11.35;;;3.03;;
12412;SDS011;13877;18.896;-99.222;2023-12-14T12:21:17;7.53;;;2.83;;
12412;SDS011;13877;18.896;-99.222;2023-12-14T12:23:45;11.88;;;2.25;;
12412;SDS011;13877;18.896;-99.222;2023-12-14T12:26:12;6.05;;;2.20;;
12412;SDS011;13877;18.896;-99.222;2023-12-14T12:28:39;5.60;;;2.55;;
12412;SDS011;13877;18.896;-99.222;2023-12-14T12:31:06;6.22;;;2.25;;
12412;SDS011;13877;18.896;-99.222;2023-12-14T12:33:34;9.23;;;2.65;;
12412;SDS011;13877;18.896;-99.222;2023-12-14T12:36:03;6.22;;;2.90;;
12412;SDS011;13877;18.896;-99.222;2023-12-14T12:38:31;7.53;;;2.88;;
12412;SDS011;13877;18.896;-99.222;2023-12-14T12:40:59;4.80;;;2.35;;
12412;SDS011;13877;18.896;-99.222;2023-12-14T12:43:27;8.63;;;2.45;;
12412;SDS011;13877;18.896;-99.222;2023-12-14T12:45:54;6.82;;;2.80;;
12412;SDS011;13877;18.896;-99.222;2023-12-14T12:48:24;17.20;;;2.90;;
12412;SDS011;13877;18.896;-99.222;2023-12-14T12:50:51;5.47;;;2.72;;
12412;SDS011;13877;18.896;-99.222;2023-12-14T12:53:19;4.80;;;2.58;;
12412;SDS011;13877;18.896;-99.222;2023-12-14T12:55:46;9.30;;;3.35;;
12412;SDS011;13877;18.896;-99.222;2023-12-14T12:58:13;14.50;;;3.30;;
12412;SDS011;13877;18.896;-99.222;2023-12-14T13:00:40;15.23;;;3.90;;
12412;SDS011;13877;18.896;-99.222;2023-12-14T13:03:08;21.48;;;4.90;;
12412;SDS011;13877;18.896;-99.222;2023-12-14T13:05:36;20.58;;;4.65;;
12412;SDS011;13877;18.896;-99.222;2023-12-14T13:08:03;22.38;;;4.20;;
12412;SDS011;13877;18.896;-99.222;2023-12-14T13:10:30;13.43;;;4.10;;
12412;SDS011;13877;18.896;-99.222;2023-12-14T13:12:58;18.38;;;4.18;;
12412;SDS011;13877;18.896;-99.222;2023-12-14T13:15:25;14.63;;;4.97;;
12412;SDS011;13877;18.896;-99.222;2023-12-14T13:17:55;15.18;;;4.65;;
12412;SDS011;13877;18.896;-99.222;2023-12-14T13:20:22;22.02;;;4.38;;
12412;SDS011;13877;18.896;-99.222;2023-12-14T13:22:49;11.13;;;4.82;;
12412;SDS011;13877;18.896;-99.222;2023-12-14T13:25:16;12.13;;;3.92;;
12412;SDS011;13877;18.896;-99.222;2023-12-14T13:27:44;13.57;;;5.28;;
12412;SDS011;13877;18.896;-99.222;2023-12-14T13:30:11;18.63;;;4.90;;
12412;SDS011;13877;18.896;-99.222;2023-12-14T13:35:09;18.63;;;5.03;;
12412;SDS011;13877;18.896;-99.222;2023-12-14T13:37:37;16.27;;;5.63;;
12412;SDS011;13877;18.896;-99.222;2023-12-14T13:40:04;13.93;;;4.38;;
12412;SDS011;13877;18.896;-99.222;2023-12-14T13:42:33;14.52;;;5.18;;
12412;SDS011;13877;18.896;-99.222;2023-12-14T13:45:00;24.65;;;5.68;;
12412;SDS011;13877;18.896;-99.222;2023-12-14T13:47:27;21.38;;;5.20;;
12412;SDS011;13877;18.896;-99.222;2023-12-14T13:49:54;30.85;;;6.18;;
12412;SDS011;13877;18.896;-99.222;2023-12-14T13:52:21;24.92;;;5.32;;
12412;SDS011;13877;18.896;-99.222;2023-12-14T13:54:49;20.95;;;5.07;;
12412;SDS011;13877;18.896;-99.222;2023-12-14T13:57:16;16.27;;;5.07;;
12412;SDS011;13877;18.896;-99.222;2023-12-14T13:59:43;12.68;;;5.28;;
12412;SDS011;13877;18.896;-99.222;2023-12-14T14:02:11;19.58;;;5.70;;
12412;SDS011;13877;18.896;-99.222;2023-12-14T14:04:39;28.73;;;5.35;;
12412;SDS011;13877;18.896;-99.222;2023-12-14T14:07:07;20.75;;;5.57;;
12412;SDS011;13877;18.896;-99.222;2023-12-14T14:09:34;13.60;;;4.72;;
12412;SDS011;13877;18.896;-99.222;2023-12-14T14:12:02;14.70;;;4.93;;
12412;SDS011;13877;18.896;-99.222;2023-12-14T14:14:30;12.18;;;4.85;;
12412;SDS011;13877;18.896;-99.222;2023-12-14T14:16:57;21.80;;;5.10;;
12412;SDS011;13877;18.896;-99.222;2023-12-14T14:19:24;17.15;;;5.85;;
12412;SDS011;13877;18.896;-99.222;2023-12-14T14:21:51;33.30;;;6.10;;
12412;SDS011;13877;18.896;-99.222;2023-12-14T14:24:19;19.65;;;6.03;;
12412;SDS011;13877;18.896;-99.222;2023-12-14T14:26:46;20.02;;;7.03;;